createdAt,value
2022-07-28T00:01:57.542Z,52.77
2022-07-28T00:05:13.463Z,52.87
2022-07-28T00:08:23.337Z,52.65
2022-07-28T00:11:28.963Z,52.81
2022-07-28T00:14:34.750Z,53.39
2022-07-28T00:17:44.586Z,53.34
2022-07-28T00:20:52.768Z,53.51
2022-07-28T00:24:04.215Z,53.34
2022-07-28T00:27:14.035Z,53.45
2022-07-28T00:30:23.101Z,53.70
2022-07-28T00:33:28.756Z,53.47
2022-07-28T00:36:37.216Z,52.86
2022-07-28T00:39:44.393Z,53.15
2022-07-28T00:42:50.024Z,52.80
2022-07-28T00:45:58.014Z,52.50
2022-07-28T00:49:24.977Z,52.73
2022-07-28T00:52:34.458Z,53.22
2022-07-28T00:56:03.678Z,52.92
2022-07-28T00:59:08.951Z,53.26
2022-07-28T01:02:14.809Z,52.85
2022-07-28T01:05:43.874Z,52.63
2022-07-28T01:09:05.891Z,53.63
2022-07-28T01:12:28.743Z,53.58
2022-07-28T01:15:51.947Z,53.02
2022-07-28T01:19:12.643Z,53.25
2022-07-28T01:22:26.685Z,53.53
2022-07-28T01:25:50.953Z,53.63
2022-07-28T01:29:20.556Z,53.86
2022-07-28T01:32:35.503Z,53.66
2022-07-28T01:35:50.752Z,53.72
2022-07-28T01:38:58.014Z,53.42
2022-07-28T01:42:09.731Z,53.49
2022-07-28T01:45:19.682Z,53.20
2022-07-28T01:48:38.692Z,53.15
2022-07-28T01:51:47.510Z,53.73
2022-07-28T01:54:56.109Z,53.44
2022-07-28T01:58:06.685Z,53.50
2022-07-28T02:01:17.805Z,53.91
2022-07-28T02:04:39.208Z,53.58
2022-07-28T02:07:49.400Z,53.41
2022-07-28T02:11:20.921Z,53.90
2022-07-28T02:14:30.536Z,53.58
2022-07-28T02:17:45.188Z,53.52
2022-07-28T02:20:54.432Z,53.74
2022-07-28T02:24:03.328Z,53.79
2022-07-28T02:27:22.517Z,54.29
2022-07-28T02:30:38.791Z,54.18
2022-07-28T02:33:59.641Z,54.32
2022-07-28T02:37:39.159Z,54.12
2022-07-28T02:40:49.470Z,54.33
2022-07-28T02:44:17.456Z,54.32
2022-07-28T02:47:37.671Z,54.40
2022-07-28T02:50:50.224Z,54.19
2022-07-28T02:54:01.288Z,54.45
2022-07-28T02:57:10.848Z,54.97
2022-07-28T03:00:18.569Z,53.50
2022-07-28T03:03:27.481Z,54.31
2022-07-28T03:06:33.331Z,54.01
2022-07-28T03:09:46.702Z,54.59
2022-07-28T03:12:52.658Z,54.21
2022-07-28T03:15:58.220Z,54.59
2022-07-28T03:19:03.873Z,53.82
2022-07-28T03:22:11.917Z,53.78
2022-07-28T03:25:29.514Z,54.08
2022-07-28T03:28:39.628Z,53.37
2022-07-28T03:31:50.142Z,53.90
2022-07-28T03:34:56.952Z,54.38
2022-07-28T03:38:14.360Z,53.40
2022-07-28T03:41:29.904Z,53.80
2022-07-28T03:44:38.555Z,53.23
2022-07-28T03:47:53.988Z,54.60
2022-07-28T03:51:02.106Z,54.65
2022-07-28T03:54:08.053Z,53.83
2022-07-28T03:57:16.284Z,53.97
2022-07-28T04:00:23.535Z,54.74
2022-07-28T04:03:43.037Z,53.75
2022-07-28T04:06:50.074Z,53.24
2022-07-28T04:09:55.818Z,53.46
2022-07-28T04:13:04.140Z,53.63
2022-07-28T04:16:10.237Z,53.52
2022-07-28T04:19:16.461Z,53.67
2022-07-28T04:22:22.837Z,52.75
2022-07-28T04:25:30.853Z,52.79
2022-07-28T04:28:39.070Z,53.15
2022-07-28T04:31:44.927Z,52.69
2022-07-28T04:34:50.714Z,53.01
2022-07-28T04:37:58.843Z,53.41
2022-07-28T04:41:04.389Z,53.38
2022-07-28T04:44:13.858Z,53.18
2022-07-28T04:47:19.796Z,52.72
2022-07-28T04:50:25.531Z,52.52
2022-07-28T04:53:36.278Z,51.31
2022-07-28T04:56:42.400Z,51.41
2022-07-28T04:59:54.131Z,51.17
2022-07-28T05:03:02.864Z,50.80
2022-07-28T05:06:08.796Z,50.99
2022-07-28T05:09:14.412Z,51.07
2022-07-28T05:12:19.990Z,50.64
2022-07-28T05:15:28.461Z,49.06
2022-07-28T05:18:34.098Z,47.28
2022-07-28T05:21:40.032Z,45.41
2022-07-28T05:24:45.837Z,44.06
2022-07-28T05:27:53.429Z,42.75
2022-07-28T05:31:01.636Z,41.93
2022-07-28T05:34:07.259Z,40.47
2022-07-28T05:37:12.889Z,39.81
2022-07-28T05:40:22.035Z,39.11
2022-07-28T05:43:28.305Z,37.16
2022-07-28T05:46:36.513Z,37.11
2022-07-28T05:49:42.135Z,36.21
2022-07-28T05:52:48.753Z,35.51
2022-07-28T05:56:00.237Z,34.68
2022-07-28T05:59:10.332Z,34.78
2022-07-28T06:02:18.663Z,33.90
2022-07-28T06:05:26.538Z,31.91
2022-07-28T06:08:32.230Z,32.37
2022-07-28T06:11:38.463Z,32.76
2022-07-28T06:14:44.291Z,31.33
2022-07-28T06:17:55.613Z,32.48
2022-07-28T06:21:04.448Z,32.41
2022-07-28T06:24:11.078Z,31.96
2022-07-28T06:27:16.932Z,32.42
2022-07-28T06:30:24.283Z,31.33
2022-07-28T06:33:32.367Z,31.62
2022-07-28T06:36:38.986Z,30.74
2022-07-28T06:39:48.421Z,30.58
2022-07-28T06:42:55.236Z,29.13
2022-07-28T06:46:00.777Z,29.02
2022-07-28T06:49:23.289Z,29.34
2022-07-28T06:52:29.847Z,29.77
2022-07-28T06:55:36.429Z,29.67
2022-07-28T06:58:42.333Z,28.88
2022-07-28T07:01:52.154Z,28.74
2022-07-28T07:05:00.392Z,28.71
2022-07-28T07:08:06.046Z,29.36
2022-07-28T07:11:11.731Z,29.82
2022-07-28T07:14:19.836Z,28.42
2022-07-28T07:17:25.417Z,28.47
2022-07-28T07:20:33.709Z,28.29
2022-07-28T07:23:39.403Z,28.13
2022-07-28T07:26:45.750Z,28.21
2022-07-28T07:29:51.365Z,28.55
2022-07-28T07:32:56.902Z,29.00
2022-07-28T07:36:05.329Z,29.05
2022-07-28T07:39:11.733Z,27.82
2022-07-28T07:42:19.649Z,27.15
2022-07-28T07:45:31.235Z,27.40
2022-07-28T07:48:38.873Z,27.29
2022-07-28T07:51:47.615Z,27.05
2022-07-28T07:54:55.293Z,28.09
2022-07-28T07:58:01.126Z,26.19
2022-07-28T08:01:15.784Z,26.56
2022-07-28T08:04:25.185Z,26.01
2022-07-28T08:07:37.880Z,25.97
2022-07-28T08:10:43.760Z,25.39
2022-07-28T08:13:54.591Z,26.70
2022-07-28T08:17:00.593Z,26.16
2022-07-28T08:20:12.747Z,25.82
2022-07-28T08:23:30.715Z,26.03
2022-07-28T08:26:36.478Z,26.86
2022-07-28T08:29:42.243Z,26.45
2022-07-28T08:32:56.843Z,26.36
2022-07-28T08:36:03.276Z,27.19
2022-07-28T08:39:11.627Z,26.77
2022-07-28T08:42:31.650Z,27.18
2022-07-28T08:45:40.816Z,27.12
2022-07-28T08:48:50.266Z,27.31
2022-07-28T08:52:02.563Z,26.96
2022-07-28T08:55:19.147Z,25.76
2022-07-28T08:58:26.015Z,25.16
2022-07-28T09:01:39.043Z,24.54
2022-07-28T09:04:46.526Z,24.78
2022-07-28T09:07:55.915Z,25.52
2022-07-28T09:11:06.428Z,26.22
2022-07-28T09:14:15.677Z,25.50
2022-07-28T09:17:27.029Z,25.06
2022-07-28T09:20:34.757Z,25.90
2022-07-28T09:23:48.831Z,25.43
2022-07-28T09:27:09.714Z,25.62
2022-07-28T09:30:16.215Z,25.25
2022-07-28T09:33:42.725Z,25.18
2022-07-28T09:36:50.833Z,24.12
2022-07-28T09:39:59.627Z,25.71
2022-07-28T09:43:13.475Z,26.86
2022-07-28T09:46:24.547Z,26.50
2022-07-28T09:49:45.363Z,25.64
2022-07-28T09:52:50.969Z,24.42
2022-07-28T09:56:00.571Z,24.68
2022-07-28T09:59:09.366Z,24.66
2022-07-28T10:02:16.325Z,24.88
2022-07-28T10:05:23.006Z,25.10
2022-07-28T10:08:53.427Z,24.42
2022-07-28T10:12:22.736Z,26.01
2022-07-28T10:15:54.707Z,26.40
2022-07-28T10:19:03.321Z,26.04
2022-07-28T10:22:11.678Z,25.32
2022-07-28T10:25:19.536Z,26.84
2022-07-28T10:28:27.334Z,25.07
2022-07-28T10:31:49.328Z,25.83
2022-07-28T10:35:06.944Z,27.17
2022-07-28T10:38:21.739Z,27.33
2022-07-28T10:41:43.489Z,27.80
2022-07-28T10:44:51.040Z,26.93
2022-07-28T10:48:04.318Z,27.05
2022-07-28T10:51:12.835Z,26.42
2022-07-28T10:54:30.528Z,27.35
2022-07-28T10:57:46.703Z,24.73
2022-07-28T11:01:26.705Z,27.00
2022-07-28T11:05:05.392Z,27.94
2022-07-28T11:08:29.622Z,29.09
2022-07-28T11:11:50.244Z,30.03
2022-07-28T11:14:55.902Z,27.40
2022-07-28T11:18:09.471Z,28.76
2022-07-28T11:21:20.557Z,26.03
2022-07-28T11:24:26.277Z,27.36
2022-07-28T11:28:16.405Z,27.43
2022-07-28T11:31:57.052Z,27.65
2022-07-28T11:35:12.837Z,27.83
2022-07-28T11:38:27.607Z,27.58
2022-07-28T11:41:34.827Z,28.17
2022-07-28T11:44:41.204Z,27.49
2022-07-28T11:47:48.180Z,27.46
2022-07-28T11:51:18.984Z,27.27
2022-07-28T11:54:28.451Z,27.61
2022-07-28T11:57:47.633Z,27.80
2022-07-28T12:01:19.401Z,27.26
2022-07-28T12:04:30.355Z,28.83
2022-07-28T12:07:43.868Z,26.97
2022-07-28T12:10:54.882Z,26.96
2022-07-28T12:14:04.170Z,27.08
2022-07-28T12:17:10.768Z,27.45
2022-07-28T12:20:22.134Z,28.63
2022-07-28T12:23:49.320Z,26.20
2022-07-28T12:26:59.746Z,26.46
2022-07-28T12:30:15.881Z,27.52
2022-07-28T12:33:29.886Z,27.70
2022-07-28T12:36:38.113Z,26.92
2022-07-28T12:39:46.361Z,27.23
2022-07-28T12:42:57.383Z,26.44
2022-07-28T12:46:08.993Z,26.70
2022-07-28T12:49:24.933Z,27.87
2022-07-28T12:52:30.578Z,27.71
2022-07-28T12:55:36.576Z,28.29
2022-07-28T12:58:44.872Z,29.82
2022-07-28T13:01:53.995Z,28.95
2022-07-28T13:04:59.631Z,29.75
2022-07-28T13:08:16.255Z,28.25
2022-07-28T13:11:46.154Z,28.73
2022-07-28T13:14:58.314Z,30.38
2022-07-28T13:18:05.234Z,29.83
2022-07-28T13:21:11.976Z,29.38
2022-07-28T13:24:20.067Z,30.22
2022-07-28T13:27:25.858Z,30.78
2022-07-28T13:30:33.963Z,29.48
2022-07-28T13:33:39.531Z,29.99
2022-07-28T13:36:50.596Z,30.29
2022-07-28T13:39:56.768Z,29.72
2022-07-28T13:43:11.463Z,29.83
2022-07-28T13:46:21.144Z,30.95
2022-07-28T13:49:27.668Z,30.71
2022-07-28T13:52:35.257Z,30.54
2022-07-28T13:55:43.002Z,31.07
2022-07-28T13:58:48.554Z,31.22
2022-07-28T14:02:01.236Z,31.32
2022-07-28T14:05:09.513Z,31.11
2022-07-28T14:08:19.575Z,30.96
2022-07-28T14:11:25.841Z,32.31
2022-07-28T14:14:36.610Z,29.86
2022-07-28T14:17:46.325Z,31.64
2022-07-28T14:20:53.186Z,31.55
2022-07-28T14:23:58.873Z,31.20
2022-07-28T14:27:08.639Z,30.21
2022-07-28T14:30:26.082Z,30.35
2022-07-28T14:33:34.230Z,30.78
2022-07-28T14:36:39.888Z,30.99
2022-07-28T14:39:53.370Z,30.86
2022-07-28T14:42:59.051Z,30.73
2022-07-28T14:46:16.252Z,30.87
2022-07-28T14:49:26.281Z,30.07
2022-07-28T14:52:33.014Z,29.96
2022-07-28T14:55:38.820Z,30.34
2022-07-28T14:58:45.103Z,31.26
2022-07-28T15:01:53.484Z,30.85
2022-07-28T15:05:01.786Z,30.67
2022-07-28T15:08:07.940Z,31.57
2022-07-28T15:11:13.517Z,32.09
2022-07-28T15:14:27.906Z,31.92
2022-07-28T15:17:36.008Z,32.17
2022-07-28T15:20:44.840Z,32.02
2022-07-28T15:23:50.748Z,31.69
2022-07-28T15:26:58.556Z,31.55
2022-07-28T15:30:04.232Z,30.63
2022-07-28T15:33:13.830Z,30.92
2022-07-28T15:36:27.403Z,30.68
2022-07-28T15:39:39.591Z,29.91
2022-07-28T15:42:48.383Z,29.65
2022-07-28T15:45:59.431Z,30.01
2022-07-28T15:49:09.570Z,29.98
2022-07-28T15:52:19.977Z,30.83
2022-07-28T15:55:25.737Z,30.96
2022-07-28T15:58:31.348Z,31.28
2022-07-28T16:01:39.820Z,30.63
2022-07-28T16:04:53.973Z,31.17
2022-07-28T16:08:02.583Z,30.48
2022-07-28T16:11:08.132Z,31.04
2022-07-28T16:14:13.912Z,30.86
2022-07-28T16:17:19.711Z,31.01
2022-07-28T16:20:25.906Z,31.08
2022-07-28T16:23:34.042Z,30.93
2022-07-28T16:26:39.588Z,31.17
2022-07-28T16:29:45.831Z,31.21
2022-07-28T16:32:59.124Z,30.79
2022-07-28T16:36:05.477Z,30.91
2022-07-28T16:39:15.562Z,30.94
2022-07-28T16:42:24.303Z,31.50
2022-07-28T16:45:30.961Z,31.35
2022-07-28T16:48:39.648Z,31.61
2022-07-28T16:51:47.417Z,31.27
2022-07-28T16:54:56.302Z,31.79
2022-07-28T16:58:01.999Z,32.09
2022-07-28T17:01:08.958Z,32.14
2022-07-28T17:04:15.169Z,32.18
2022-07-28T17:07:29.202Z,31.50
2022-07-28T17:10:42.598Z,31.81
2022-07-28T17:13:48.106Z,32.05
2022-07-28T17:16:53.673Z,31.68
2022-07-28T17:19:59.401Z,31.67
2022-07-28T17:23:08.906Z,32.25
2022-07-28T17:27:32.390Z,32.10
2022-07-28T17:29:48.319Z,32.33
2022-07-28T17:33:06.072Z,32.86
2022-07-28T17:36:13.793Z,33.50
2022-07-28T17:39:19.564Z,33.61
2022-07-28T17:42:31.440Z,33.42
2022-07-28T17:45:46.440Z,33.75
2022-07-28T17:48:52.228Z,34.53
2022-07-28T17:51:57.858Z,34.67
2022-07-28T17:55:16.672Z,35.23
2022-07-28T17:58:32.396Z,35.23
2022-07-28T18:01:43.588Z,35.53
2022-07-28T18:04:50.896Z,35.85
2022-07-28T18:07:59.308Z,35.63
2022-07-28T18:11:06.802Z,36.89
2022-07-28T18:14:15.649Z,37.03
2022-07-28T18:17:23.622Z,37.76
2022-07-28T18:20:29.504Z,38.99
2022-07-28T18:23:35.745Z,39.37
2022-07-28T18:26:41.466Z,39.39
2022-07-28T18:29:49.680Z,39.92
2022-07-28T18:32:56.232Z,40.64
2022-07-28T18:36:04.898Z,41.16
2022-07-28T18:41:58.192Z,41.75
2022-07-28T18:45:05.175Z,42.18
2022-07-28T18:48:11.646Z,42.00
2022-07-28T18:51:19.840Z,42.55
2022-07-28T18:54:27.640Z,42.28
2022-07-28T18:57:36.267Z,43.11
2022-07-28T19:00:42.425Z,43.11
2022-07-28T19:03:50.627Z,43.14
2022-07-28T19:06:59.924Z,42.66
2022-07-28T19:10:14.213Z,43.05
2022-07-28T19:13:28.283Z,42.89
2022-07-28T19:16:38.532Z,42.28
2022-07-28T19:19:44.327Z,42.29
2022-07-28T19:23:03.227Z,42.78
2022-07-28T19:26:10.856Z,42.46
2022-07-28T19:29:25.175Z,42.64
2022-07-28T19:32:30.737Z,42.67
2022-07-28T19:35:39.227Z,42.52
2022-07-28T19:38:46.079Z,42.40
2022-07-28T19:41:51.794Z,42.08
2022-07-28T19:45:09.751Z,42.30
2022-07-28T19:48:24.698Z,42.93
2022-07-28T19:51:30.846Z,43.27
2022-07-28T19:54:36.512Z,43.06
2022-07-28T19:57:45.427Z,42.84
2022-07-28T20:00:54.165Z,42.96
2022-07-28T20:04:05.304Z,43.38
2022-07-28T20:07:13.891Z,43.16
2022-07-28T20:10:19.526Z,43.14
2022-07-28T20:13:38.473Z,43.12
2022-07-28T20:16:46.844Z,43.37
2022-07-28T20:20:17.741Z,43.42
2022-07-28T20:23:30.046Z,43.69
2022-07-28T20:26:35.732Z,44.13
2022-07-28T20:29:45.058Z,43.96
2022-07-28T20:32:53.428Z,44.01
2022-07-28T20:36:01.876Z,44.20
2022-07-28T20:39:34.426Z,44.16
2022-07-28T20:42:40.580Z,44.07
2022-07-28T20:45:52.830Z,44.30
2022-07-28T20:49:01.384Z,44.93
2022-07-28T20:52:10.254Z,44.82
2022-07-28T20:58:35.168Z,45.39
2022-07-28T21:01:49.341Z,45.30
2022-07-28T21:05:01.227Z,45.83
2022-07-28T21:08:18.773Z,45.63
2022-07-28T21:11:24.335Z,46.38
2022-07-28T21:14:32.792Z,46.34
2022-07-28T21:17:38.604Z,46.85
2022-07-28T21:20:44.633Z,46.99
2022-07-28T21:23:52.269Z,47.53
2022-07-28T21:26:58.131Z,47.53
2022-07-28T21:30:10.974Z,48.20
2022-07-28T21:33:23.442Z,48.03
2022-07-28T21:36:32.319Z,48.50
2022-07-28T21:39:38.308Z,48.50
2022-07-28T21:42:43.968Z,48.28
2022-07-28T21:45:52.590Z,48.47
2022-07-28T21:49:10.183Z,49.12
2022-07-28T21:52:15.892Z,48.96
2022-07-28T21:55:21.622Z,49.50
2022-07-28T21:58:27.845Z,49.38
2022-07-28T22:01:36.118Z,50.14
2022-07-28T22:04:41.757Z,50.65
2022-07-28T22:07:48.478Z,50.52
2022-07-28T22:10:54.136Z,50.67
2022-07-28T22:13:59.753Z,51.28
2022-07-28T22:17:11.524Z,51.15
2022-07-28T22:20:17.543Z,51.50
2022-07-28T22:23:28.971Z,51.24
2022-07-28T22:26:38.025Z,51.65
2022-07-28T22:29:51.325Z,51.89
2022-07-28T22:33:00.057Z,51.95
2022-07-28T22:36:08.776Z,51.58
2022-07-28T22:39:18.723Z,52.15
2022-07-28T22:42:24.322Z,52.49
2022-07-28T22:45:50.028Z,52.19
2022-07-28T22:48:58.515Z,52.71
2022-07-28T22:52:04.373Z,53.16
2022-07-28T22:58:33.406Z,53.29
2022-07-28T23:01:40.067Z,53.39
2022-07-28T23:04:58.722Z,53.77
2022-07-28T23:08:04.414Z,54.19
2022-07-28T23:11:20.891Z,54.05
2022-07-28T23:14:28.645Z,54.45
2022-07-28T23:17:39.686Z,54.54
2022-07-28T23:20:49.005Z,54.81
2022-07-28T23:23:54.868Z,54.90
2022-07-28T23:27:00.570Z,54.97
2022-07-28T23:30:08.565Z,55.12
2022-07-28T23:33:55.854Z,55.60
2022-07-28T23:36:51.290Z,55.50
2022-07-28T23:40:05.176Z,56.09
2022-07-28T23:43:10.746Z,56.13
2022-07-28T23:46:16.370Z,56.40
2022-07-28T23:49:22.360Z,56.06
2022-07-28T23:52:30.609Z,56.28
2022-07-28T23:55:36.231Z,56.37
2022-07-28T23:58:43.942Z,56.10
